createdAt,value
2023-01-02T00:01:21.798Z,11.43
2023-01-02T00:03:48.720Z,11.80
2023-01-02T00:06:17.730Z,13.77
2023-01-02T00:08:44.812Z,13.00
2023-01-02T00:11:11.718Z,12.17
2023-01-02T00:13:38.975Z,11.53
2023-01-02T00:16:07.072Z,10.60
2023-01-02T00:18:34.350Z,10.17
2023-01-02T00:21:06.966Z,13.73
2023-01-02T00:23:35.122Z,11.00
2023-01-02T00:26:02.329Z,11.60
2023-01-02T00:28:30.138Z,9.63
2023-01-02T00:30:57.348Z,8.00
2023-01-02T00:33:24.275Z,8.80
2023-01-02T00:35:51.168Z,9.63
2023-01-02T00:38:19.224Z,9.63
2023-01-02T00:40:46.181Z,15.30
2023-01-02T00:43:13.103Z,10.43
2023-01-02T00:45:39.995Z,6.97
2023-01-02T00:48:07.014Z,11.07
2023-01-02T00:50:34.007Z,8.67
2023-01-02T00:53:00.942Z,8.23
2023-01-02T00:55:27.873Z,7.47
2023-01-02T00:57:54.727Z,8.93
2023-01-02T01:00:24.318Z,7.53
2023-01-02T01:02:59.449Z,9.03
2023-01-02T01:05:28.070Z,7.03
2023-01-02T01:07:57.193Z,6.97
2023-01-02T01:10:26.836Z,5.37
2023-01-02T01:12:53.815Z,10.37
2023-01-02T01:15:20.846Z,9.47
2023-01-02T01:17:48.009Z,6.80
2023-01-02T01:20:15.168Z,5.13
2023-01-02T01:22:42.065Z,7.37
2023-01-02T01:25:09.338Z,7.47
2023-01-02T01:27:36.514Z,6.93
2023-01-02T01:30:06.081Z,7.00
2023-01-02T01:32:33.113Z,7.53
2023-01-02T01:34:59.994Z,9.20
2023-01-02T01:37:26.953Z,7.90
2023-01-02T01:39:56.670Z,6.23
2023-01-02T01:42:24.142Z,12.10
2023-01-02T01:44:55.045Z,6.87
2023-01-02T01:47:47.603Z,6.03
2023-01-02T01:50:36.152Z,7.30
2023-01-02T01:53:18.674Z,7.70
2023-01-02T01:55:57.414Z,5.50
2023-01-02T01:58:41.743Z,8.83
2023-01-02T02:01:13.972Z,7.13
2023-01-02T02:03:48.258Z,6.70
2023-01-02T02:06:19.246Z,7.57
2023-01-02T02:09:04.678Z,7.67
2023-01-02T02:11:32.615Z,7.70
2023-01-02T02:14:01.251Z,7.00
2023-01-02T02:16:57.446Z,7.77
2023-01-02T02:20:09.689Z,8.00
2023-01-02T02:23:17.030Z,8.90
2023-01-02T02:26:25.327Z,9.40
2023-01-02T02:30:03.248Z,7.23
2023-01-02T02:32:59.253Z,8.10
2023-01-02T02:35:57.743Z,7.33
2023-01-02T02:39:21.137Z,7.37
2023-01-02T02:42:32.954Z,6.83
2023-01-02T02:45:33.047Z,9.37
2023-01-02T02:48:25.971Z,7.80
2023-01-02T02:51:10.586Z,6.00
2023-01-02T02:53:58.904Z,7.50
2023-01-02T02:56:29.386Z,7.13
2023-01-02T02:58:57.724Z,8.63
2023-01-02T03:01:30.912Z,6.23
2023-01-02T03:03:58.588Z,8.00
2023-01-02T03:06:59.943Z,7.40
2023-01-02T03:09:56.459Z,8.60
2023-01-02T03:13:13.014Z,10.03
2023-01-02T03:16:00.083Z,8.87
2023-01-02T03:18:52.151Z,7.10
2023-01-02T03:21:48.769Z,7.57
2023-01-02T03:24:21.196Z,9.07
2023-01-02T03:27:02.812Z,6.30
2023-01-02T03:30:01.189Z,8.30
2023-01-02T03:32:58.409Z,7.90
2023-01-02T03:35:36.213Z,8.70
2023-01-02T03:38:09.898Z,9.43
2023-01-02T03:40:47.104Z,9.20
2023-01-02T03:43:28.973Z,8.60
2023-01-02T03:46:33.299Z,8.20
2023-01-02T03:49:28.761Z,6.43
2023-01-02T03:51:55.703Z,5.73
2023-01-02T03:54:23.155Z,6.33
2023-01-02T03:57:33.109Z,7.07
2023-01-02T04:00:16.333Z,9.03
2023-01-02T04:03:20.442Z,8.27
2023-01-02T04:06:05.618Z,6.53
2023-01-02T04:08:44.936Z,7.00
2023-01-02T04:11:19.130Z,5.83
2023-01-02T04:13:58.296Z,7.33
2023-01-02T04:16:33.949Z,6.40
2023-01-02T04:19:15.448Z,5.33
2023-01-02T04:21:49.683Z,7.40
2023-01-02T04:24:37.264Z,5.43
2023-01-02T04:27:18.511Z,8.40
2023-01-02T04:29:45.649Z,7.03
2023-01-02T04:32:43.996Z,6.30
2023-01-02T04:35:19.200Z,9.23
2023-01-02T04:37:48.208Z,8.27
2023-01-02T04:40:27.463Z,5.27
2023-01-02T04:42:55.286Z,7.60
2023-01-02T04:45:23.215Z,9.03
2023-01-02T04:47:51.105Z,7.20
2023-01-02T04:50:18.631Z,8.53
2023-01-02T04:52:45.491Z,9.20
2023-01-02T04:55:12.353Z,9.07
2023-01-02T04:57:39.292Z,6.70
2023-01-02T05:00:09.018Z,10.00
2023-01-02T05:02:40.635Z,10.53
2023-01-02T05:05:09.416Z,6.60
2023-01-02T05:07:38.482Z,5.87
2023-01-02T05:10:07.594Z,6.90
2023-01-02T05:12:36.638Z,6.77
2023-01-02T05:15:10.167Z,6.73
2023-01-02T05:17:41.160Z,7.83
2023-01-02T05:20:12.700Z,9.07
2023-01-02T05:23:00.833Z,6.03
2023-01-02T05:25:32.693Z,6.43
2023-01-02T05:27:59.597Z,6.50
2023-01-02T05:30:26.686Z,6.03
2023-01-02T05:32:53.639Z,7.27
2023-01-02T05:35:21.352Z,9.90
2023-01-02T05:37:49.160Z,11.93
2023-01-02T05:40:16.118Z,6.43
2023-01-02T05:42:43.036Z,9.00
2023-01-02T05:45:10.170Z,7.63
2023-01-02T05:47:37.081Z,8.27
2023-01-02T05:50:04.670Z,7.47
2023-01-02T05:52:31.539Z,8.00
2023-01-02T05:54:58.467Z,8.20
2023-01-02T05:57:25.307Z,7.60
2023-01-02T05:59:52.223Z,6.23
2023-01-02T06:02:19.196Z,8.17
2023-01-02T06:04:46.237Z,6.63
2023-01-02T06:07:13.086Z,8.80
2023-01-02T06:09:39.947Z,8.03
2023-01-02T06:12:06.863Z,8.50
2023-01-02T06:14:33.737Z,8.97
2023-01-02T06:17:00.697Z,9.10
2023-01-02T06:19:27.677Z,6.20
2023-01-02T06:21:54.534Z,7.50
2023-01-02T06:24:21.451Z,9.07
2023-01-02T06:26:48.372Z,8.50
2023-01-02T06:29:15.538Z,6.00
2023-01-02T06:31:46.061Z,8.53
2023-01-02T06:34:17.648Z,7.80
2023-01-02T06:36:44.543Z,6.13
2023-01-02T06:39:11.714Z,5.10
2023-01-02T06:41:38.611Z,7.67
2023-01-02T06:44:05.676Z,7.37
2023-01-02T06:46:32.539Z,7.87
2023-01-02T06:48:59.426Z,5.93
2023-01-02T06:51:26.401Z,7.50
2023-01-02T06:53:53.424Z,8.27
2023-01-02T06:56:21.596Z,5.10
2023-01-02T06:58:49.336Z,6.20
2023-01-02T07:01:21.489Z,7.50
2023-01-02T07:03:49.213Z,6.50
2023-01-02T07:06:22.739Z,5.57
2023-01-02T07:08:49.883Z,7.23
2023-01-02T07:11:24.788Z,5.70
2023-01-02T07:13:54.571Z,7.50
2023-01-02T07:16:23.942Z,6.37
2023-01-02T07:18:54.431Z,7.63
2023-01-02T07:21:22.225Z,6.57
2023-01-02T07:23:49.114Z,6.47
2023-01-02T07:26:16.939Z,6.67
2023-01-02T07:28:45.253Z,5.30
2023-01-02T07:31:16.413Z,5.67
2023-01-02T07:33:43.890Z,5.43
2023-01-02T07:36:17.101Z,9.10
2023-01-02T07:38:49.022Z,7.03
2023-01-02T07:41:24.076Z,8.90
2023-01-02T07:43:55.967Z,6.30
2023-01-02T07:46:24.119Z,6.47
2023-01-02T07:48:51.216Z,6.93
2023-01-02T07:51:24.775Z,5.33
2023-01-02T07:53:54.168Z,6.20
2023-01-02T07:56:21.037Z,5.37
2023-01-02T07:58:47.955Z,5.93
2023-01-02T08:01:14.894Z,4.57
2023-01-02T08:03:42.065Z,5.13
2023-01-02T08:06:17.667Z,4.83
2023-01-02T08:08:45.351Z,4.00
2023-01-02T08:11:17.051Z,5.87
2023-01-02T08:13:44.444Z,4.53
2023-01-02T08:16:21.728Z,8.40
2023-01-02T08:18:54.477Z,4.40
2023-01-02T08:21:26.269Z,4.90
2023-01-02T08:23:53.594Z,4.77
2023-01-02T08:26:21.178Z,7.90
2023-01-02T08:28:48.261Z,5.67
2023-01-02T08:31:21.585Z,4.20
2023-01-02T08:33:48.871Z,5.40
2023-01-02T08:36:15.780Z,5.50
2023-01-02T08:38:42.942Z,5.30
2023-01-02T08:41:10.278Z,5.63
2023-01-02T08:43:37.640Z,4.80
2023-01-02T08:46:10.371Z,4.57
2023-01-02T08:48:37.742Z,5.00
2023-01-02T08:51:05.431Z,7.10
2023-01-02T08:53:32.341Z,3.90
2023-01-02T08:56:30.177Z,3.83
2023-01-02T08:59:02.931Z,3.70
2023-01-02T09:03:52.412Z,3.60
2023-01-02T09:06:22.510Z,4.10
2023-01-02T09:08:52.772Z,4.57
2023-01-02T09:11:28.850Z,4.77
2023-01-02T09:13:58.227Z,4.77
2023-01-02T09:16:25.851Z,4.17
2023-01-02T09:18:56.673Z,4.43
2023-01-02T09:21:23.591Z,5.03
2023-01-02T09:23:50.542Z,4.50
2023-01-02T09:26:18.044Z,4.10
2023-01-02T09:28:45.185Z,4.43
2023-01-02T09:31:16.698Z,6.63
2023-01-02T09:33:47.180Z,4.40
2023-01-02T09:36:19.716Z,5.00
2023-01-02T09:39:00.844Z,4.40
2023-01-02T09:41:46.122Z,5.77
2023-01-02T09:44:38.305Z,4.63
2023-01-02T09:47:10.448Z,4.17
2023-01-02T09:49:51.724Z,4.57
2023-01-02T09:52:40.766Z,4.67
2023-01-02T09:55:55.187Z,4.30
2023-01-02T09:58:57.447Z,5.97
2023-01-02T10:01:57.414Z,4.23
2023-01-02T10:04:43.504Z,4.27
2023-01-02T10:07:34.289Z,6.00
2023-01-02T10:10:26.560Z,4.77
2023-01-02T10:14:17.915Z,4.10
2023-01-02T10:16:52.884Z,5.30
2023-01-02T10:19:44.095Z,4.77
2023-01-02T10:22:22.463Z,4.67
2023-01-02T10:25:22.227Z,4.20
2023-01-02T10:28:35.224Z,4.40
2023-01-02T10:31:21.125Z,5.20
2023-01-02T10:33:58.470Z,5.23
2023-01-02T10:36:32.143Z,4.83
2023-01-02T10:39:30.201Z,4.30
2023-01-02T10:41:59.840Z,3.60
2023-01-02T10:44:33.968Z,4.23
2023-01-02T10:47:40.034Z,4.07
2023-01-02T10:50:20.710Z,3.60
2023-01-02T10:52:53.850Z,3.73
2023-01-02T10:55:38.765Z,4.90
2023-01-02T10:58:29.991Z,3.40
2023-01-02T11:01:20.992Z,3.87
2023-01-02T11:04:00.132Z,3.87
2023-01-02T11:06:39.389Z,5.77
2023-01-02T11:09:29.451Z,5.10
2023-01-02T11:12:12.615Z,3.40
2023-01-02T11:14:40.386Z,4.40
2023-01-02T11:17:15.231Z,4.20
2023-01-02T11:19:54.642Z,4.60
2023-01-02T11:22:35.765Z,4.00
2023-01-02T11:25:07.551Z,4.50
2023-01-02T11:27:43.121Z,4.53
2023-01-02T11:30:42.745Z,4.83
2023-01-02T11:33:27.128Z,5.10
2023-01-02T11:36:04.662Z,2.83
2023-01-02T11:39:23.511Z,3.60
2023-01-02T11:42:27.742Z,3.40
2023-01-02T11:45:09.713Z,10.40
2023-01-02T11:47:52.078Z,5.10
2023-01-02T11:50:32.949Z,4.30
2023-01-02T11:53:13.942Z,3.40
2023-01-02T11:56:06.500Z,3.43
2023-01-02T11:59:09.735Z,4.67
2023-01-02T12:02:10.429Z,3.67
2023-01-02T12:04:37.531Z,6.07
2023-01-02T12:07:17.382Z,3.80
2023-01-02T12:10:28.264Z,3.80
2023-01-02T12:13:35.060Z,2.80
2023-01-02T12:16:43.569Z,3.80
2023-01-02T12:19:34.289Z,3.30
2023-01-02T12:22:56.165Z,6.00
2023-01-02T12:26:01.013Z,3.00
2023-01-02T12:29:46.213Z,3.40
2023-01-02T12:33:20.387Z,6.83
2023-01-02T12:36:36.153Z,3.17
2023-01-02T12:39:52.927Z,4.70
2023-01-02T12:43:25.381Z,5.93
2023-01-02T12:46:10.030Z,4.03
2023-01-02T12:49:36.431Z,4.00
2023-01-02T12:52:59.295Z,4.17
2023-01-02T12:55:52.594Z,5.07
2023-01-02T12:59:30.094Z,3.20
2023-01-02T13:02:56.880Z,3.03
2023-01-02T13:05:41.931Z,4.60
2023-01-02T13:08:26.938Z,2.90
2023-01-02T13:11:00.520Z,3.43
2023-01-02T13:13:36.065Z,3.57
2023-01-02T13:16:24.352Z,4.13
2023-01-02T13:19:25.957Z,2.40
2023-01-02T13:22:15.910Z,3.87
2023-01-02T13:24:44.342Z,3.60
2023-01-02T13:27:12.739Z,2.87
2023-01-02T13:29:46.068Z,3.20
2023-01-02T13:32:25.577Z,6.43
2023-01-02T13:34:58.092Z,8.40
2023-01-02T13:37:29.495Z,3.80
2023-01-02T13:40:03.625Z,3.53
2023-01-02T13:42:56.163Z,6.10
2023-01-02T13:45:37.460Z,4.70
2023-01-02T13:48:30.923Z,5.93
2023-01-02T13:51:14.166Z,3.90
2023-01-02T13:53:48.989Z,4.67
2023-01-02T13:56:26.008Z,9.17
2023-01-02T13:59:41.791Z,4.23
2023-01-02T14:02:20.776Z,4.60
2023-01-02T14:04:48.032Z,7.07
2023-01-02T14:07:27.064Z,7.70
2023-01-02T14:10:31.383Z,13.07
2023-01-02T14:13:09.324Z,3.73
2023-01-02T14:16:24.796Z,5.80
2023-01-02T14:19:22.266Z,4.70
2023-01-02T14:21:58.305Z,5.43
2023-01-02T14:24:42.560Z,3.33
2023-01-02T14:27:15.412Z,4.63
2023-01-02T14:30:02.955Z,4.23
2023-01-02T14:32:43.982Z,5.37
2023-01-02T14:35:10.752Z,5.03
2023-01-02T14:37:48.961Z,4.70
2023-01-02T14:40:21.562Z,7.23
2023-01-02T14:43:31.755Z,4.90
2023-01-02T14:46:04.501Z,6.33
2023-01-02T14:49:25.992Z,6.47
2023-01-02T14:52:08.513Z,3.60
2023-01-02T14:55:24.224Z,8.13
2023-01-02T14:57:55.493Z,6.53
2023-01-02T15:00:38.049Z,5.70
2023-01-02T15:03:50.296Z,5.67
2023-01-02T15:06:41.478Z,8.10
2023-01-02T15:09:36.581Z,7.40
2023-01-02T15:12:46.655Z,5.70
2023-01-02T15:15:24.426Z,10.50
2023-01-02T15:17:55.389Z,16.70
2023-01-02T15:20:27.675Z,12.50
2023-01-02T15:22:56.631Z,9.63
2023-01-02T15:25:40.553Z,8.90
2023-01-02T15:28:31.710Z,4.43
2023-01-02T15:31:04.620Z,3.97
2023-01-02T15:33:34.833Z,7.93
2023-01-02T15:36:31.887Z,12.30
2023-01-02T15:39:32.862Z,9.73
2023-01-02T15:42:08.161Z,14.80
2023-01-02T15:44:58.300Z,16.27
2023-01-02T15:47:28.491Z,13.87
2023-01-02T15:49:57.822Z,19.93
2023-01-02T15:52:32.027Z,19.50
2023-01-02T15:55:00.483Z,17.47
2023-01-02T15:57:33.817Z,18.53
2023-01-02T16:00:01.041Z,8.73
2023-01-02T16:02:44.598Z,9.20
2023-01-02T16:05:19.591Z,9.93
2023-01-02T16:07:59.252Z,9.80
2023-01-02T16:10:30.617Z,7.50
2023-01-02T16:13:27.066Z,10.60
2023-01-02T16:16:16.173Z,7.57
2023-01-02T16:18:53.238Z,6.10
2023-01-02T16:21:21.503Z,11.80
2023-01-02T16:23:54.997Z,10.33
2023-01-02T16:26:40.408Z,10.90
2023-01-02T16:29:22.564Z,9.33
2023-01-02T16:32:02.784Z,8.33
2023-01-02T16:34:37.921Z,12.73
2023-01-02T16:37:16.952Z,12.30
2023-01-02T16:39:50.539Z,8.20
2023-01-02T16:42:36.345Z,8.53
2023-01-02T16:45:05.651Z,5.20
2023-01-02T16:47:43.456Z,6.60
2023-01-02T16:50:26.915Z,9.13
2023-01-02T16:53:03.117Z,7.30
2023-01-02T16:55:30.333Z,9.20
2023-01-02T16:57:57.240Z,7.40
2023-01-02T17:00:24.322Z,13.93
2023-01-02T17:02:51.580Z,11.47
2023-01-02T17:05:33.413Z,7.77
2023-01-02T17:08:00.357Z,6.20
2023-01-02T17:10:28.729Z,5.73
2023-01-02T17:12:55.741Z,8.80
2023-01-02T17:15:22.694Z,7.33
2023-01-02T17:17:51.899Z,6.67
2023-01-02T17:20:19.188Z,5.87
2023-01-02T17:22:46.428Z,14.57
2023-01-02T17:25:16.627Z,6.40
2023-01-02T17:27:44.777Z,6.97
2023-01-02T17:30:15.569Z,4.60
2023-01-02T17:32:44.286Z,6.30
2023-01-02T17:35:12.176Z,10.90
2023-01-02T17:37:39.457Z,14.30
2023-01-02T17:40:10.866Z,11.73
2023-01-02T17:42:37.987Z,6.90
2023-01-02T17:45:06.301Z,11.63
2023-01-02T17:48:02.137Z,16.10
2023-01-02T17:50:21.122Z,11.57
2023-01-02T17:52:47.988Z,6.03
2023-01-02T17:55:15.242Z,5.13
2023-01-02T17:57:42.797Z,11.23
2023-01-02T18:00:14.987Z,7.73
2023-01-02T18:02:42.564Z,11.63
2023-01-02T18:05:09.824Z,9.93
2023-01-02T18:07:36.781Z,9.73
2023-01-02T18:10:08.640Z,8.03
2023-01-02T18:12:38.534Z,4.53
2023-01-02T18:15:15.639Z,7.67
2023-01-02T18:17:42.891Z,11.07
2023-01-02T18:20:20.613Z,19.40
2023-01-02T18:22:50.567Z,6.10
2023-01-02T18:25:29.844Z,15.13
2023-01-02T18:28:18.651Z,4.70
2023-01-02T18:30:45.613Z,8.50
2023-01-02T18:33:18.496Z,17.80
2023-01-02T18:35:59.032Z,17.33
2023-01-02T18:38:39.880Z,3.07
2023-01-02T18:41:27.546Z,7.20
2023-01-02T18:44:19.272Z,20.40
2023-01-02T18:47:03.370Z,11.90
2023-01-02T18:49:42.565Z,14.70
2023-01-02T18:52:30.917Z,4.97
2023-01-02T18:55:29.429Z,8.93
2023-01-02T18:58:30.799Z,10.07
2023-01-02T19:00:57.753Z,8.33
2023-01-02T19:03:27.865Z,5.00
2023-01-02T19:05:54.910Z,10.83
2023-01-02T19:08:37.370Z,4.03
2023-01-02T19:11:39.779Z,12.00
2023-01-02T19:14:22.334Z,5.30
2023-01-02T19:17:19.569Z,4.67
2023-01-02T19:19:46.686Z,5.90
2023-01-02T19:22:27.740Z,7.30
2023-01-02T19:24:58.104Z,23.73
2023-01-02T19:27:39.120Z,10.77
2023-01-02T19:30:35.636Z,10.90
2023-01-02T19:33:34.224Z,8.53
2023-01-02T19:36:05.196Z,4.20
2023-01-02T19:38:34.225Z,6.00
2023-01-02T19:41:02.191Z,3.20
2023-01-02T19:43:29.186Z,6.47
2023-01-02T19:45:56.150Z,8.33
2023-01-02T19:48:23.136Z,7.50
2023-01-02T19:50:50.603Z,9.73
2023-01-02T19:53:17.465Z,7.50
2023-01-02T19:55:44.324Z,8.30
2023-01-02T19:58:11.293Z,5.47
2023-01-02T20:00:38.337Z,6.47
2023-01-02T20:03:05.382Z,6.87
2023-01-02T20:05:32.369Z,11.07
2023-01-02T20:07:59.370Z,8.63
2023-01-02T20:10:26.708Z,10.67
2023-01-02T20:12:53.685Z,7.47
2023-01-02T20:15:27.400Z,6.00
2023-01-02T20:17:55.135Z,4.03
2023-01-02T20:20:30.058Z,4.43
2023-01-02T20:22:56.997Z,10.20
2023-01-02T20:25:26.333Z,5.47
2023-01-02T20:27:56.135Z,3.27
2023-01-02T20:30:25.369Z,8.17
2023-01-02T20:32:53.857Z,6.27
2023-01-02T20:35:21.718Z,6.27
2023-01-02T20:37:48.690Z,4.27
2023-01-02T20:40:16.186Z,7.90
2023-01-02T20:42:43.194Z,7.30
2023-01-02T20:45:11.361Z,4.10
2023-01-02T20:47:38.267Z,4.23
2023-01-02T20:50:05.800Z,4.90
2023-01-02T20:52:32.695Z,3.57
2023-01-02T20:54:59.762Z,1.40
2023-01-02T20:57:26.667Z,5.07
2023-01-02T20:59:53.654Z,4.77
2023-01-02T21:02:20.876Z,2.07
2023-01-02T21:04:48.003Z,1.93
2023-01-02T21:07:14.878Z,4.80
2023-01-02T21:09:41.807Z,2.90
2023-01-02T21:12:28.684Z,2.00
2023-01-02T21:14:55.964Z,2.03
2023-01-02T21:17:22.970Z,1.73
2023-01-02T21:19:49.853Z,2.30
2023-01-02T21:22:16.862Z,2.43
2023-01-02T21:24:43.762Z,2.20
2023-01-02T21:27:13.477Z,2.17
2023-01-02T21:29:41.176Z,3.00
2023-01-02T21:32:08.404Z,2.50
2023-01-02T21:34:35.339Z,3.07
2023-01-02T21:37:02.246Z,6.63
2023-01-02T21:39:29.134Z,4.37
2023-01-02T21:42:14.899Z,5.53
2023-01-02T21:44:41.855Z,3.53
2023-01-02T21:47:09.320Z,1.67
2023-01-02T21:49:36.228Z,2.03
2023-01-02T21:52:03.131Z,2.13
2023-01-02T21:54:30.866Z,6.43
2023-01-02T21:56:57.787Z,4.83
2023-01-02T21:59:25.689Z,4.30
2023-01-02T22:01:54.140Z,3.53
2023-01-02T22:04:23.166Z,2.73
2023-01-02T22:07:30.192Z,1.70
2023-01-02T22:09:37.456Z,2.23
2023-01-02T22:12:07.005Z,2.90
2023-01-02T22:14:37.826Z,5.27
2023-01-02T22:17:10.603Z,4.50
2023-01-02T22:19:39.501Z,2.67
2023-01-02T22:22:06.930Z,1.73
2023-01-02T22:24:39.186Z,2.30
2023-01-02T22:27:14.312Z,2.53
2023-01-02T22:30:19.469Z,2.77
2023-01-02T22:32:33.521Z,2.33
2023-01-02T22:35:05.808Z,2.40
2023-01-02T22:37:33.197Z,2.50
2023-01-02T22:40:01.581Z,3.83
2023-01-02T22:43:07.716Z,1.47
2023-01-02T22:45:44.904Z,2.60
2023-01-02T22:48:32.344Z,1.90
2023-01-02T22:51:02.505Z,2.30
2023-01-02T22:53:36.989Z,1.90
2023-01-02T22:56:21.685Z,1.90
2023-01-02T22:58:50.647Z,1.50
2023-01-02T23:01:39.004Z,1.97
2023-01-02T23:04:23.709Z,1.83
2023-01-02T23:07:22.994Z,1.80
2023-01-02T23:09:39.753Z,2.43
2023-01-02T23:12:07.111Z,1.73
2023-01-02T23:14:34.138Z,2.63
2023-01-02T23:17:19.760Z,2.80
2023-01-02T23:19:46.632Z,1.97
2023-01-02T23:22:13.600Z,2.10
2023-01-02T23:24:40.740Z,2.00
2023-01-02T23:27:12.539Z,2.07
2023-01-02T23:29:40.721Z,1.80
2023-01-02T23:32:10.297Z,4.17
2023-01-02T23:34:37.918Z,1.87
2023-01-02T23:37:05.743Z,1.70
2023-01-02T23:39:34.766Z,3.40
2023-01-02T23:42:02.763Z,2.00
2023-01-02T23:44:29.794Z,1.70
2023-01-02T23:46:57.069Z,2.27
2023-01-02T23:49:24.877Z,1.80
2023-01-02T23:51:53.703Z,2.77
2023-01-02T23:54:22.173Z,1.70
2023-01-02T23:56:51.663Z,1.70
2023-01-02T23:59:23.668Z,1.87
